昆明 の空港の天気 - METARとTAF

昆明巫家餽国際空港 ( ZPPP / KMG ) - 中国 雲南省昆明市
飛行場実況気象(Metar)
観測時間01/18 17:00 CST (01/18 09:00 UTC)
風向・風速南西 7m/s
視程10km以上
天気現象
なし
気温15℃
湿度45%
気圧1016hPa
METARZPPP 180900Z 23007MPS 200V260 CAVOK 15/03 Q1016 NOSIG
過去の天気等 Google飛行場航空写真 Wunderground天気予報

過去48時間のMETAR

飛行場予報(TAF)
発表時間: 1/18 09:05 CST (1/18 01:05 UTC)
予報対象時間: 18日14時 CST ~ 19日14時 CST
風向・風速南西 6m/s
視程10km以上
全天の4割程度の雲 雲底高度 790m
TAF ZPPP 180105Z 1806/1906 22006MPS 9999 SCT026 TX17/1808Z TN04/1823Z